Time;durP1;ratioP1;P1;durP2;ratioP2;P2;SDS_P1;SDS_P2;PMS_P1;PMS_P2;Temp;Humidity;BMP_temperature;BMP_pressure;BME280_temperature;BME280_humidity;BME280_pressure;Samples;Min_cycle;Max_cycle;Signal;HPM_P1;HPM_P2
2022/10/13 00:00:47;;;;;;;32.78;21.05;;;;;;;11.47;94.00;95343.70;1696612;84;21106;-51
2022/10/13 00:03:14;;;;;;;27.07;20.10;;;;;;;11.51;93.73;95342.22;1696583;84;21012;-51
2022/10/13 00:05:43;;;;;;;38.30;22.25;;;;;;;11.53;93.42;95342.55;1696564;84;21233;-52
2022/10/13 00:08:12;;;;;;;28.57;19.82;;;;;;;11.55;93.30;95343.64;1696463;83;20960;-52
2022/10/13 00:10:48;;;;;;;24.30;18.00;;;;;;;11.60;93.41;95334.09;1696616;84;20903;-51
2022/10/13 00:13:14;;;;;;;22.45;16.70;;;;;;;11.65;93.21;95335.70;1678616;84;21030;-51
2022/10/13 00:15:43;;;;;;;24.00;15.98;;;;;;;11.69;92.69;95338.36;1678523;84;21075;-50
2022/10/13 00:18:10;;;;;;;24.70;15.88;;;;;;;11.69;92.41;95333.61;1696465;84;21582;-51
2022/10/13 00:20:48;;;;;;;19.67;15.55;;;;;;;11.70;92.06;95329.64;1696433;84;20968;-50
2022/10/13 00:23:15;;;;;;;27.10;16.90;;;;;;;11.72;92.34;95325.84;1696443;84;21058;-51
2022/10/13 00:25:46;;;;;;;23.87;15.78;;;;;;;11.74;92.20;95326.16;1696805;84;21027;-51
2022/10/13 00:28:13;;;;;;;25.82;16.65;;;;;;;11.77;91.88;95323.93;1696566;84;20959;-51
2022/10/13 00:30:41;;;;;;;24.12;17.25;;;;;;;11.76;91.34;95318.25;1678753;84;21998;-51
2022/10/13 00:33:09;;;;;;;29.15;19.32;;;;;;;11.70;91.34;95313.10;1696385;83;21127;-52
2022/10/13 00:35:45;;;;;;;29.32;19.25;;;;;;;11.65;91.09;95317.80;1696586;84;21086;-52
2022/10/13 00:38:16;;;;;;;27.55;19.50;;;;;;;11.58;91.13;95312.51;1696709;84;20976;-51
2022/10/13 00:40:55;;;;;;;28.87;18.77;;;;;;;11.50;91.27;95311.13;1696451;84;21007;-51
2022/10/13 00:43:27;;;;;;;25.62;16.85;;;;;;;11.44;91.46;95311.52;1696474;84;21260;-50
2022/10/13 00:45:54;;;;;;;26.73;18.07;;;;;;;11.41;91.76;95308.27;1679752;84;20969;-52
2022/10/13 00:48:28;;;;;;;24.67;18.17;;;;;;;11.39;91.95;95303.02;1656173;84;21067;-51
2022/10/13 00:50:54;;;;;;;24.25;17.17;;;;;;;11.38;92.30;95306.36;1678670;84;20975;-52
2022/10/13 00:53:26;;;;;;;26.30;18.12;;;;;;;11.36;92.46;95297.01;1656035;84;21063;-50
2022/10/13 00:55:53;;;;;;;25.72;17.85;;;;;;;11.35;92.50;95303.11;1696668;84;21141;-52
2022/10/13 00:58:21;;;;;;;27.40;17.77;;;;;;;11.34;92.61;95300.19;1696515;84;21039;-52
2022/10/13 01:00:50;;;;;;;27.15;18.35;;;;;;;11.36;92.88;95308.03;1696477;84;21015;-50
2022/10/13 01:03:19;;;;;;;26.57;17.48;;;;;;;11.39;92.90;95309.28;1696492;84;21550;-51
2022/10/13 01:05:46;;;;;;;29.23;18.98;;;;;;;11.39;92.87;95307.91;1678367;84;20943;-51
2022/10/13 01:08:13;;;;;;;33.83;19.27;;;;;;;11.37;92.72;95311.70;1696446;84;21260;-50
2022/10/13 01:11:18;;;;;;;31.10;19.02;;;;;;;11.34;92.81;95308.45;1696498;84;21005;-53
2022/10/13 01:14:15;;;;;;;28.05;18.37;;;;;;;11.34;92.98;95304.32;1696712;84;20999;-51
2022/10/13 01:17:04;;;;;;;30.60;18.07;;;;;;;11.40;93.05;95312.23;1696693;84;21079;-51
2022/10/13 01:19:51;;;;;;;26.25;18.15;;;;;;;11.44;92.93;95301.88;1696752;84;20984;-52
2022/10/13 01:22:40;;;;;;;24.47;16.25;;;;;;;11.40;92.55;95306.72;1695458;84;21267;-52
2022/10/13 01:25:46;;;;;;;26.65;17.55;;;;;;;11.33;92.47;95308.91;1696402;84;21019;-51
2022/10/13 01:28:34;;;;;;;35.15;18.70;;;;;;;11.29;92.63;95297.20;1697046;84;20948;-51
2022/10/13 01:31:18;;;;;;;32.28;19.05;;;;;;;11.27;92.80;95303.16;1691367;84;21047;-50
2022/10/13 01:33:58;;;;;;;27.50;18.35;;;;;;;11.24;92.71;95304.04;1673255;84;20968;-52
2022/10/13 01:36:55;;;;;;;29.27;17.32;;;;;;;11.24;92.93;95297.75;1696767;84;21881;-50
2022/10/13 01:39:39;;;;;;;29.02;17.02;;;;;;;11.24;93.15;95294.99;1696146;84;20963;-50
2022/10/13 01:42:17;;;;;;;25.02;16.57;;;;;;;11.29;93.21;95297.98;1696952;84;20959;-51
2022/10/13 01:44:50;;;;;;;26.77;17.10;;;;;;;11.29;92.93;95291.09;1696202;84;20964;-51
2022/10/13 01:47:17;;;;;;;24.23;16.77;;;;;;;11.27;92.72;95291.36;1697030;84;20960;-51
2022/10/13 01:49:44;;;;;;;26.48;16.37;;;;;;;11.23;92.72;95295.61;1696663;84;21145;-51
2022/10/13 01:52:16;;;;;;;28.73;16.65;;;;;;;11.24;93.00;95299.91;1696600;84;20956;-52
2022/10/13 01:54:49;;;;;;;24.98;15.90;;;;;;;11.25;92.80;95286.30;1696974;84;20964;-51
2022/10/13 01:57:40;;;;;;;22.82;14.78;;;;;;;11.26;92.60;95285.69;1696972;84;21036;-51
2022/10/13 02:00:19;;;;;;;24.52;16.77;;;;;;;11.26;92.80;95287.84;1672045;84;21000;-51
2022/10/13 02:02:59;;;;;;;27.07;17.45;;;;;;;11.24;92.53;95288.89;1696622;84;20968;-51
2022/10/13 02:05:35;;;;;;;31.95;18.17;;;;;;;11.21;92.42;95294.49;1696724;84;21658;-50
2022/10/13 02:08:33;;;;;;;31.15;16.48;;;;;;;11.19;92.63;95292.17;1696929;84;20980;-50
2022/10/13 02:11:14;;;;;;;27.52;16.02;;;;;;;11.24;92.64;95298.53;1678963;84;21519;-51
2022/10/13 02:14:02;;;;;;;26.02;17.00;;;;;;;11.25;92.42;95295.95;1696713;84;21075;-51
2022/10/13 02:16:33;;;;;;;30.68;17.75;;;;;;;11.24;92.19;95301.28;1696696;84;21269;-52
2022/10/13 02:19:03;;;;;;;34.63;19.10;;;;;;;11.23;92.15;95290.10;1696968;84;21020;-53
2022/10/13 02:21:30;;;;;;;31.55;17.60;;;;;;;11.24;91.90;95292.23;1696789;84;21040;-51
2022/10/13 02:24:00;;;;;;;26.42;17.35;;;;;;;11.26;92.03;95289.81;1696262;84;21060;-52
2022/10/13 02:26:30;;;;;;;24.98;15.18;;;;;;;11.26;91.82;95282.34;1696566;84;21078;-50
2022/10/13 02:28:59;;;;;;;26.62;14.75;;;;;;;11.28;91.79;95285.42;1696876;84;21820;-52
2022/10/13 02:31:28;;;;;;;20.75;14.07;;;;;;;11.27;91.52;95285.84;1696506;83;21082;-51
2022/10/13 02:33:56;;;;;;;23.40;14.83;;;;;;;11.23;91.36;95291.48;1696654;84;21055;-52
2022/10/13 02:36:23;;;;;;;23.25;13.98;;;;;;;11.17;91.33;95286.33;1696656;84;21428;-52
2022/10/13 02:38:51;;;;;;;24.10;14.55;;;;;;;11.17;91.34;95286.95;1696621;84;21071;-52
2022/10/13 02:41:18;;;;;;;24.00;14.15;;;;;;;11.14;91.56;95273.44;1696565;84;22090;-52
2022/10/13 02:43:45;;;;;;;23.62;15.30;;;;;;;11.17;91.71;95272.56;1696794;84;21436;-51
2022/10/13 02:46:13;;;;;;;23.92;14.50;;;;;;;11.16;91.42;95282.66;1696616;84;21409;-52
2022/10/13 02:48:40;;;;;;;21.62;13.60;;;;;;;11.16;91.58;95286.16;1696748;83;21439;-51
2022/10/13 02:51:06;;;;;;;21.05;14.45;;;;;;;11.17;91.58;95286.33;1696571;83;20971;-51
2022/10/13 02:53:33;;;;;;;19.37;13.70;;;;;;;11.16;91.46;95282.03;1696618;84;21245;-52
2022/10/13 02:56:00;;;;;;;25.00;13.78;;;;;;;11.16;91.50;95286.16;1696589;84;20983;-53
2022/10/13 02:58:27;;;;;;;24.52;15.23;;;;;;;11.16;91.57;95277.14;1696535;84;21106;-52
2022/10/13 03:00:54;;;;;;;25.10;14.70;;;;;;;11.15;91.48;95281.11;1696704;84;21012;-53
2022/10/13 03:03:21;;;;;;;26.70;14.75;;;;;;;11.14;91.55;95283.08;1696668;84;21039;-52
2022/10/13 03:05:50;;;;;;;23.20;15.03;;;;;;;11.17;91.63;95284.19;1696531;84;21790;-51
2022/10/13 03:08:17;;;;;;;24.63;15.05;;;;;;;11.20;91.52;95284.69;1696478;84;21106;-53
2022/10/13 03:10:46;;;;;;;27.90;17.67;;;;;;;11.24;91.67;95276.50;1696567;84;20972;-51
2022/10/13 03:13:13;;;;;;;27.37;17.02;;;;;;;11.32;91.53;95272.31;1696567;83;21447;-52
2022/10/13 03:15:40;;;;;;;27.98;17.07;;;;;;;11.40;91.25;95275.63;1696574;84;21038;-52
2022/10/13 03:18:08;;;;;;;28.12;16.37;;;;;;;11.43;90.81;95277.50;1696634;84;21241;-52
2022/10/13 03:20:36;;;;;;;24.85;15.20;;;;;;;11.42;90.50;95278.72;1679056;84;20955;-51
2022/10/13 03:23:03;;;;;;;27.17;16.20;;;;;;;11.39;90.47;95274.84;1696635;84;20987;-51
2022/10/13 03:25:29;;;;;;;20.60;14.45;;;;;;;11.42;90.61;95280.88;1675458;84;21511;-51
2022/10/13 03:27:57;;;;;;;22.05;14.05;;;;;;;11.47;90.48;95280.91;1699410;84;21074;-52
2022/10/13 03:30:25;;;;;;;24.92;15.53;;;;;;;11.46;90.05;95281.53;1699300;84;21161;-52
2022/10/13 03:32:51;;;;;;;24.95;14.70;;;;;;;11.45;89.76;95282.75;1699309;84;21003;-51
2022/10/13 03:35:18;;;;;;;26.73;18.35;;;;;;;11.43;89.78;95278.28;1699276;84;20990;-52
2022/10/13 03:37:45;;;;;;;32.53;22.07;;;;;;;11.43;89.73;95279.66;1699464;84;21459;-51
2022/10/13 03:40:12;;;;;;;42.62;28.15;;;;;;;11.40;89.65;95279.77;1699317;84;21055;-51
2022/10/13 03:42:39;;;;;;;31.80;22.20;;;;;;;11.37;90.26;95280.02;1699308;84;21864;-50
2022/10/13 03:45:08;;;;;;;30.77;21.10;;;;;;;11.42;90.31;95273.98;1699318;84;20995;-50
2022/10/13 03:47:37;;;;;;;33.33;19.42;;;;;;;11.45;90.37;95270.35;1699316;84;20971;-53
2022/10/13 03:50:05;;;;;;;25.37;18.40;;;;;;;11.48;90.21;95271.44;1673651;84;20971;-52
2022/10/13 03:52:32;;;;;;;20.32;14.93;;;;;;;11.51;90.00;95269.96;1699608;84;21067;-52
2022/10/13 03:54:58;;;;;;;21.23;14.45;;;;;;;11.52;89.97;95268.75;1699286;84;21307;-51
2022/10/13 03:57:25;;;;;;;18.62;13.68;;;;;;;11.49;89.87;95271.01;1699303;84;20963;-52
2022/10/13 03:59:54;;;;;;;18.92;13.80;;;;;;;11.48;89.97;95266.71;1699342;83;21027;-52
2022/10/13 04:02:20;;;;;;;22.17;13.03;;;;;;;11.50;90.30;95264.28;1674238;84;21023;-52
2022/10/13 04:04:49;;;;;;;20.60;12.43;;;;;;;11.55;89.88;95263.73;1673984;84;21055;-52
2022/10/13 04:07:16;;;;;;;16.90;12.47;;;;;;;11.57;89.87;95254.44;1699332;84;21163;-52
2022/10/13 04:09:44;;;;;;;17.77;13.13;;;;;;;11.62;89.65;95261.39;1699567;84;21464;-50
2022/10/13 04:12:12;;;;;;;21.57;13.60;;;;;;;11.61;89.71;95264.77;1699452;84;20967;-52
2022/10/13 04:14:39;;;;;;;17.62;12.80;;;;;;;11.63;89.80;95265.09;1699424;84;21519;-51
2022/10/13 04:17:08;;;;;;;17.92;12.28;;;;;;;11.70;89.66;95262.11;1699295;84;21118;-51
2022/10/13 04:19:36;;;;;;;17.95;11.55;;;;;;;11.72;89.30;95255.55;1699391;83;20952;-52
2022/10/13 04:22:05;;;;;;;22.73;12.95;;;;;;;11.75;89.12;95258.80;1668589;84;21439;-53
2022/10/13 04:24:33;;;;;;;21.55;13.05;;;;;;;11.78;89.00;95251.05;1635586;87;21037;-53
2022/10/13 04:27:00;;;;;;;25.95;14.30;;;;;;;11.85;89.05;95249.42;1666741;86;21069;-53
2022/10/13 04:29:27;;;;;;;21.87;13.93;;;;;;;11.88;88.69;95251.30;1666979;86;21494;-52
2022/10/13 04:31:54;;;;;;;24.82;14.87;;;;;;;11.89;88.56;95247.95;1666735;86;21171;-54
2022/10/13 04:34:21;;;;;;;22.95;14.05;;;;;;;11.92;88.39;95256.08;1649865;86;21083;-53
2022/10/13 04:36:52;;;;;;;22.82;13.22;;;;;;;11.95;88.33;95255.22;1666812;86;21520;-53
2022/10/13 04:39:18;;;;;;;20.43;13.43;;;;;;;11.95;87.97;95248.33;1627721;86;21071;-55
2022/10/13 04:41:45;;;;;;;22.02;15.30;;;;;;;11.90;87.93;95250.86;1621754;87;21027;-56
2022/10/13 04:44:12;;;;;;;24.77;15.30;;;;;;;11.85;88.22;95254.94;1666726;86;21275;-53
2022/10/13 04:46:38;;;;;;;23.07;14.15;;;;;;;11.88;88.30;95252.67;1666989;85;21024;-53
2022/10/13 04:49:05;;;;;;;23.92;14.00;;;;;;;11.90;88.33;95261.27;1649479;86;21018;-50
2022/10/13 04:51:34;;;;;;;21.97;14.63;;;;;;;11.93;88.03;95247.22;1667183;85;21183;-51
2022/10/13 04:54:01;;;;;;;23.83;15.63;;;;;;;11.88;87.62;95254.05;1667172;86;21562;-52
2022/10/13 04:56:28;;;;;;;26.77;17.20;;;;;;;11.83;87.66;95262.89;1667153;85;22122;-52
2022/10/13 04:58:58;;;;;;;23.22;15.98;;;;;;;11.79;87.77;95256.72;1667247;86;21061;-52
2022/10/13 05:01:25;;;;;;;22.73;15.15;;;;;;;11.77;87.99;95261.91;1667331;86;21046;-51
2022/10/13 05:03:54;;;;;;;25.02;15.95;;;;;;;11.76;87.94;95261.74;1667024;86;21026;-52
2022/10/13 05:06:24;;;;;;;23.83;16.02;;;;;;;11.77;87.90;95263.88;1667220;85;21574;-51
2022/10/13 05:08:53;;;;;;;;;;;;;;;11.77;88.02;95267.42;1669192;86;21310;-53
2022/10/13 05:11:20;;;;;;;32.55;18.60;;;;;;;11.78;88.28;95270.34;1666912;86;20151;-53
2022/10/13 05:13:48;;;;;;;28.15;18.67;;;;;;;11.79;88.33;95271.88;1650116;86;21091;-54
2022/10/13 05:16:16;;;;;;;26.87;18.25;;;;;;;11.77;88.28;95271.55;1666970;86;21022;-53
2022/10/13 05:18:43;;;;;;;28.60;18.23;;;;;;;11.80;88.44;95263.77;1667642;85;20983;-54
2022/10/13 05:21:14;;;;;;;30.88;19.73;;;;;;;11.87;88.06;95267.67;1667056;86;21345;-54
2022/10/13 05:23:41;;;;;;;28.80;19.00;;;;;;;11.91;88.15;95265.56;1667255;86;21523;-54
2022/10/13 05:26:11;;;;;;;31.85;18.90;;;;;;;11.95;87.79;95262.70;1622072;87;21067;-53
2022/10/13 05:28:39;;;;;;;32.25;18.70;;;;;;;11.90;87.39;95269.55;1653064;85;21077;-53
2022/10/13 05:31:12;;;;;;;32.20;18.62;;;;;;;11.87;87.35;95266.92;1681320;85;21183;-52
2022/10/13 05:33:38;;;;;;;25.57;16.97;;;;;;;11.83;87.41;95268.40;1681710;85;21140;-54
2022/10/13 05:36:13;;;;;;;26.80;18.02;;;;;;;11.80;87.52;95268.50;1681142;85;21204;-53
2022/10/13 05:38:40;;;;;;;39.42;21.45;;;;;;;11.75;87.58;95268.44;1681271;85;21116;-54
2022/10/13 05:41:12;;;;;;;39.03;20.72;;;;;;;11.74;88.10;95264.14;1665509;85;21103;-53
2022/10/13 05:43:40;;;;;;;31.57;19.62;;;;;;;11.76;88.08;95271.39;1680774;85;21008;-53
2022/10/13 05:46:07;;;;;;;28.75;18.07;;;;;;;11.72;88.11;95269.33;1681339;85;21260;-54
2022/10/13 05:48:36;;;;;;;29.25;16.67;;;;;;;11.71;88.59;95271.92;1681239;85;20988;-54
2022/10/13 05:51:11;;;;;;;25.90;15.83;;;;;;;11.70;88.32;95272.38;1690467;83;21014;-53
2022/10/13 05:53:45;;;;;;;23.35;15.38;;;;;;;11.70;88.49;95277.27;1661217;85;21098;-54
2022/10/13 05:56:15;;;;;;;28.62;16.02;;;;;;;11.73;88.65;95279.14;1685707;83;21164;-54
2022/10/13 05:58:45;;;;;;;27.07;16.67;;;;;;;11.75;88.64;95271.20;1691951;83;21127;-56
2022/10/13 06:01:15;;;;;;;26.48;15.93;;;;;;;11.78;88.56;95283.34;1690025;83;21050;-55
2022/10/13 06:03:42;;;;;;;27.93;15.50;;;;;;;11.80;88.56;95278.94;1670022;84;21087;-52
2022/10/13 06:06:10;;;;;;;30.37;17.50;;;;;;;11.86;88.62;95283.30;1696958;83;21024;-53
2022/10/13 06:08:37;;;;;;;26.20;16.32;;;;;;;11.95;88.26;95280.63;1686219;82;21024;-53
2022/10/13 06:11:05;;;;;;;35.88;18.48;;;;;;;12.03;88.18;95277.20;1695270;82;21609;-52
2022/10/13 06:13:32;;;;;;;26.80;16.52;;;;;;;12.09;87.76;95280.94;1607550;84;20924;-53
2022/10/13 06:16:00;;;;;;;29.45;15.75;;;;;;;12.10;87.96;95281.09;1703306;83;21043;-54
2022/10/13 06:18:28;;;;;;;24.82;15.08;;;;;;;12.20;87.90;95277.23;1700621;83;21110;-56
2022/10/13 06:20:56;;;;;;;30.37;16.90;;;;;;;12.26;87.39;95285.09;1691054;83;21126;-54
2022/10/13 06:23:23;;;;;;;22.40;15.53;;;;;;;12.26;87.13;95276.82;1695091;82;21115;-56
2022/10/13 06:25:51;;;;;;;27.48;15.53;;;;;;;12.30;87.10;95280.23;1708364;81;21126;-55
2022/10/13 06:28:19;;;;;;;23.35;13.43;;;;;;;12.32;86.89;95276.44;1682444;83;21051;-54
2022/10/13 06:30:52;;;;;;;25.72;14.35;;;;;;;12.33;86.68;95273.84;1710510;82;21084;-53
2022/10/13 06:33:17;;;;;;;18.27;12.50;;;;;;;12.33;86.68;95277.20;1707427;82;21053;-53
2022/10/13 06:35:48;;;;;;;21.73;13.28;;;;;;;12.37;86.22;95273.70;1706496;82;21315;-54
2022/10/13 06:38:17;;;;;;;20.08;13.78;;;;;;;12.41;86.01;95282.03;1722316;82;21085;-54
2022/10/13 06:40:50;;;;;;;17.57;12.15;;;;;;;12.47;85.65;95278.86;1684494;83;21618;-52
2022/10/13 06:43:17;;;;;;;17.70;11.73;;;;;;;12.49;85.62;95277.80;1703344;82;21052;-56
2022/10/13 06:45:45;;;;;;;16.52;11.35;;;;;;;12.55;84.99;95278.17;1698268;82;21141;-54
2022/10/13 06:48:12;;;;;;;25.80;13.53;;;;;;;12.61;84.24;95270.10;1684262;82;21124;-55
2022/10/13 06:50:39;;;;;;;24.60;14.10;;;;;;;12.68;84.16;95277.53;1723730;81;21065;-54
2022/10/13 06:53:06;;;;;;;20.77;12.80;;;;;;;12.73;84.13;95270.05;1699850;82;21022;-53
2022/10/13 06:55:34;;;;;;;16.90;12.00;;;;;;;12.82;83.74;95272.89;1698694;82;21041;-53
2022/10/13 06:58:00;;;;;;;17.85;12.47;;;;;;;12.87;83.63;95272.31;1712423;82;21038;-56
2022/10/13 07:00:27;;;;;;;16.90;12.07;;;;;;;12.90;83.23;95276.94;1714873;82;21255;-55
2022/10/13 07:02:55;;;;;;;16.07;9.95;;;;;;;12.86;83.11;95274.16;1712545;82;21030;-55
2022/10/13 07:05:23;;;;;;;15.83;10.30;;;;;;;12.82;82.83;95266.59;1721019;81;21019;-53
2022/10/13 07:07:52;;;;;;;20.15;12.75;;;;;;;12.81;82.83;95276.88;1711650;82;21021;-54
2022/10/13 07:10:19;;;;;;;17.62;12.10;;;;;;;12.80;83.15;95269.81;1726296;81;21083;-53
2022/10/13 07:12:46;;;;;;;17.90;10.35;;;;;;;12.86;83.29;95268.02;1721409;82;21192;-53
2022/10/13 07:15:15;;;;;;;13.22;9.10;;;;;;;12.90;83.16;95267.89;1695719;83;21481;-51
2022/10/13 07:17:44;;;;;;;24.43;11.28;;;;;;;12.96;82.99;95270.27;1650464;84;21208;-53
2022/10/13 07:20:12;;;;;;;18.92;13.28;;;;;;;13.05;82.61;95263.44;1655947;84;21226;-54
2022/10/13 07:22:40;;;;;;;18.15;10.28;;;;;;;13.07;81.65;95259.61;1716355;83;20992;-54
2022/10/13 07:25:08;;;;;;;15.80;10.20;;;;;;;13.04;81.46;95264.66;1712668;82;21301;-53
2022/10/13 07:27:39;;;;;;;22.13;13.00;;;;;;;13.09;81.84;95262.69;1694009;82;21447;-53
2022/10/13 07:30:07;;;;;;;12.98;9.28;;;;;;;13.19;81.81;95265.66;1709113;82;21435;-54
2022/10/13 07:32:35;;;;;;;7.10;5.85;;;;;;;13.22;81.99;95265.53;1717142;82;21048;-53
2022/10/13 07:35:03;;;;;;;7.92;5.95;;;;;;;13.25;81.42;95263.24;1700439;82;21085;-55
2022/10/13 07:37:32;;;;;;;9.10;5.58;;;;;;;13.34;80.78;95268.84;1724539;82;21055;-55
2022/10/13 07:40:00;;;;;;;21.82;10.45;;;;;;;13.44;80.20;95260.73;1696003;82;20993;-55
2022/10/13 07:42:29;;;;;;;17.07;11.12;;;;;;;13.55;79.99;95261.11;1679249;84;21149;-54
2022/10/13 07:44:56;;;;;;;12.73;7.45;;;;;;;13.67;79.79;95257.47;1682552;84;21008;-54
2022/10/13 07:47:25;;;;;;;9.05;6.62;;;;;;;13.76;79.72;95258.13;1666966;84;22202;-56
2022/10/13 07:49:53;;;;;;;8.00;4.72;;;;;;;13.79;79.29;95255.85;1675459;84;21217;-54
2022/10/13 07:52:20;;;;;;;15.80;7.33;;;;;;;13.81;78.47;95260.31;1672827;84;21042;-54
2022/10/13 07:54:50;;;;;;;8.73;6.65;;;;;;;13.86;78.05;95252.80;1646383;84;21074;-56
2022/10/13 07:57:17;;;;;;;9.70;6.67;;;;;;;13.82;77.23;95250.16;1678119;84;21079;-55
2022/10/13 07:59:44;;;;;;;11.70;6.40;;;;;;;13.81;77.61;95249.25;1703048;82;21061;-55
2022/10/13 08:02:13;;;;;;;8.63;6.00;;;;;;;13.83;77.58;95247.55;1703686;82;21043;-57
2022/10/13 08:04:40;;;;;;;10.50;6.00;;;;;;;13.93;77.76;95244.20;1720955;81;21063;-54
2022/10/13 08:07:07;;;;;;;11.68;5.53;;;;;;;13.99;77.30;95248.68;1692310;82;21089;-54
2022/10/13 08:09:34;;;;;;;5.45;4.90;;;;;;;14.02;77.04;95240.09;1714738;82;21018;-53
2022/10/13 08:12:02;;;;;;;6.92;5.85;;;;;;;14.04;76.88;95242.57;1673168;84;21108;-54
2022/10/13 08:14:32;;;;;;;14.47;6.00;;;;;;;14.00;76.47;95241.17;1681529;84;21978;-57
2022/10/13 08:17:00;;;;;;;7.15;4.95;;;;;;;13.98;76.16;95241.61;1669856;83;22300;-52
2022/10/13 08:19:27;;;;;;;6.90;5.20;;;;;;;14.01;76.03;95239.94;1715051;82;21661;-55
2022/10/13 08:21:55;;;;;;;5.83;4.92;;;;;;;14.07;75.61;95243.63;1723839;81;21013;-53
2022/10/13 08:24:22;;;;;;;11.00;6.08;;;;;;;14.07;75.79;95243.03;1677999;82;21104;-56
2022/10/13 08:26:49;;;;;;;7.78;6.03;;;;;;;14.08;75.98;95229.36;1668894;82;21153;-55
2022/10/13 08:29:18;;;;;;;10.18;7.03;;;;;;;14.14;75.45;95230.91;1704715;82;21521;-54
2022/10/13 08:31:45;;;;;;;7.25;6.00;;;;;;;14.17;75.14;95230.02;1684125;82;21024;-54
2022/10/13 08:34:12;;;;;;;8.13;6.75;;;;;;;14.24;74.78;95238.02;1714706;81;21089;-53
2022/10/13 08:36:39;;;;;;;40.52;12.47;;;;;;;14.28;74.82;95227.56;1714729;81;21101;-53
2022/10/13 08:39:09;;;;;;;13.05;9.65;;;;;;;14.32;74.81;95226.82;1692100;82;21883;-55
2022/10/13 08:41:42;;;;;;;33.18;23.25;;;;;;;14.41;75.06;95236.52;1696814;82;21080;-55
2022/10/13 08:44:27;;;;;;;18.02;12.93;;;;;;;14.45;74.59;95224.81;1710006;81;21116;-54
2022/10/13 08:47:15;;;;;;;12.88;7.60;;;;;;;14.44;75.15;95234.98;1717960;82;21045;-53
2022/10/13 08:49:42;;;;;;;22.27;7.65;;;;;;;14.47;75.03;95238.97;1723644;82;21008;-54
2022/10/13 08:52:25;;;;;;;12.40;9.53;;;;;;;14.59;75.10;95244.98;1712771;82;21224;-54
2022/10/13 08:54:53;;;;;;;8.48;7.03;;;;;;;14.68;73.83;95236.70;1712381;82;21525;-55
2022/10/13 08:57:21;;;;;;;9.28;7.22;;;;;;;14.71;73.86;95239.92;1701153;82;21048;-53
2022/10/13 08:59:48;;;;;;;7.42;6.25;;;;;;;14.75;73.62;95241.13;1714971;81;21597;-56
2022/10/13 09:02:26;;;;;;;9.00;6.83;;;;;;;14.77;72.19;95235.91;1719541;82;20979;-56
2022/10/13 09:04:55;;;;;;;11.43;7.45;;;;;;;14.70;71.87;95241.16;1711683;82;21012;-55
2022/10/13 09:07:26;;;;;;;16.52;11.73;;;;;;;14.67;72.22;95236.52;1718283;82;21009;-58
2022/10/13 09:09:54;;;;;;;18.87;10.08;;;;;;;14.77;72.68;95234.52;1714913;82;20986;-58
2022/10/13 09:12:23;;;;;;;17.90;12.00;;;;;;;14.90;72.91;95240.08;1690492;82;21063;-54
2022/10/13 09:15:08;;;;;;;13.43;10.10;;;;;;;15.04;72.54;95233.88;1715597;82;21046;-55
2022/10/13 09:17:37;;;;;;;11.50;8.48;;;;;;;15.15;71.96;95245.27;1714955;82;21125;-54
2022/10/13 09:20:22;;;;;;;19.55;7.80;;;;;;;15.20;72.26;95241.11;1710759;82;21100;-54
2022/10/13 09:23:19;;;;;;;25.30;7.62;;;;;;;15.23;71.61;95237.41;1658720;84;21018;-55
2022/10/13 09:25:51;;;;;;;17.48;8.13;;;;;;;15.28;70.74;95238.94;1722836;82;21057;-55
2022/10/13 09:28:29;;;;;;;14.58;9.38;;;;;;;15.39;71.32;95240.62;1696970;83;21117;-58
2022/10/13 09:31:14;;;;;;;13.28;7.08;;;;;;;15.53;71.18;95245.52;1680097;83;21186;-52
2022/10/13 09:33:41;;;;;;;11.57;7.22;;;;;;;15.60;70.32;95232.73;1690143;84;21151;-54
2022/10/13 09:36:12;;;;;;;11.80;8.15;;;;;;;15.67;70.42;95241.31;1696557;81;21666;-55
2022/10/13 09:38:42;;;;;;;12.65;6.78;;;;;;;15.66;70.24;95237.78;1704364;83;21052;-54
2022/10/13 09:41:19;;;;;;;9.15;7.20;;;;;;;15.70;70.25;95233.47;1701392;83;21565;-53
2022/10/13 09:43:52;;;;;;;17.27;7.53;;;;;;;15.67;70.26;95231.00;1700652;83;21206;-54
2022/10/13 09:46:27;;;;;;;18.75;11.80;;;;;;;15.68;69.87;95224.22;1694422;83;21110;-55
2022/10/13 09:49:04;;;;;;;15.72;8.05;;;;;;;15.71;69.75;95223.91;1692990;83;21076;-54
2022/10/13 09:51:43;;;;;;;13.50;8.25;;;;;;;15.69;68.91;95228.52;1696062;83;21085;-53
2022/10/13 09:54:38;;;;;;;22.62;15.23;;;;;;;15.63;68.80;95229.02;1707817;83;21087;-53
2022/10/13 09:57:25;;;;;;;13.83;8.38;;;;;;;15.81;68.51;95228.95;1641984;84;21232;-53
2022/10/13 10:00:05;;;;;;;9.75;6.35;;;;;;;16.27;68.87;95226.07;1691415;83;21130;-53
2022/10/13 10:02:59;;;;;;;8.33;5.30;;;;;;;16.77;65.84;95205.05;1706437;83;21146;-55
2022/10/13 10:05:50;;;;;;;11.50;7.30;;;;;;;17.38;64.90;95207.60;1741011;81;21011;-54
2022/10/13 10:08:35;;;;;;;8.10;6.70;;;;;;;18.16;61.53;95194.43;1700158;83;21051;-54
2022/10/13 10:11:05;;;;;;;8.70;6.20;;;;;;;18.97;61.44;95189.80;1698986;83;21849;-54
2022/10/13 10:13:31;;;;;;;10.38;5.70;;;;;;;19.85;59.19;95195.45;1701121;83;21436;-54
2022/10/13 10:16:30;;;;;;;12.20;5.65;;;;;;;20.09;56.76;95188.95;1669828;83;21080;-57
2022/10/13 10:19:21;;;;;;;9.85;7.90;;;;;;;19.86;57.19;95190.00;1688345;85;21538;-54
2022/10/13 10:21:53;;;;;;;16.67;10.28;;;;;;;19.40;56.22;95187.98;1668403;85;21078;-56
2022/10/13 10:24:59;;;;;;;18.50;8.88;;;;;;;18.89;56.89;95186.53;1698326;83;21070;-53
2022/10/13 10:27:31;;;;;;;8.68;5.42;;;;;;;18.65;57.87;95177.64;1723537;83;21062;-54
2022/10/13 10:30:02;;;;;;;5.80;5.07;;;;;;;19.05;58.31;95175.54;1709252;82;21023;-54
2022/10/13 10:32:50;;;;;;;7.25;5.05;;;;;;;19.35;57.18;95174.10;1685053;82;21742;-53
2022/10/13 10:35:53;;;;;;;7.37;5.90;;;;;;;19.54;56.90;95170.35;1721857;82;21067;-55
2022/10/13 10:38:53;;;;;;;6.50;4.70;;;;;;;20.11;55.18;95171.05;1719663;82;21144;-55
2022/10/13 10:41:53;;;;;;;8.33;4.37;;;;;;;21.00;52.11;95169.59;1716913;82;21047;-54
2022/10/13 10:44:33;;;;;;;5.00;4.50;;;;;;;21.54;50.26;95163.95;1720952;83;21518;-54
2022/10/13 10:47:05;;;;;;;7.85;4.45;;;;;;;21.79;48.72;95160.94;1719091;82;21066;-54
2022/10/13 10:49:38;;;;;;;11.83;5.30;;;;;;;22.09;48.86;95158.48;1727028;81;21009;-55
2022/10/13 10:52:09;;;;;;;11.88;4.58;;;;;;;22.64;47.79;95156.97;1679599;82;21404;-55
2022/10/13 10:54:50;;;;;;;;;;;;;;;23.09;46.90;95148.49;1695153;84;21366;-55
2022/10/13 10:57:47;;;;;;;5.30;4.15;;;;;;;23.39;45.85;95145.13;1634789;87;20470;-55
2022/10/13 11:00:20;;;;;;;4.87;3.80;;;;;;;23.63;45.11;95149.44;1713122;82;21074;-57
2022/10/13 11:03:32;;;;;;;7.80;4.05;;;;;;;23.96;43.82;95143.55;1702372;82;21003;-57
2022/10/13 11:06:18;;;;;;;7.33;4.67;;;;;;;24.20;43.66;95139.38;1720197;82;21262;-55
2022/10/13 11:08:47;;;;;;;9.38;4.53;;;;;;;24.54;42.25;95132.89;1705003;83;21045;-54
2022/10/13 11:11:29;;;;;;;7.80;4.33;;;;;;;24.52;42.28;95130.48;1697919;83;21018;-55
2022/10/13 11:14:09;;;;;;;8.95;4.95;;;;;;;24.70;42.14;95128.34;1707346;83;22093;-54
2022/10/13 11:17:00;;;;;;;9.10;4.95;;;;;;;25.03;41.37;95122.30;1667207;82;21032;-55
2022/10/13 11:19:33;;;;;;;7.50;4.20;;;;;;;25.24;41.20;95121.91;1704768;82;21251;-54
2022/10/13 11:22:07;;;;;;;9.48;4.22;;;;;;;25.40;40.57;95118.86;1683248;83;21049;-53
2022/10/13 11:24:43;;;;;;;9.60;4.20;;;;;;;25.61;40.36;95111.99;1714928;82;21149;-55
2022/10/13 11:27:17;;;;;;;10.82;4.37;;;;;;;25.54;39.48;95108.41;1715933;82;21023;-54
2022/10/13 11:29:56;;;;;;;5.87;4.42;;;;;;;25.29;39.55;95112.63;1711100;82;21203;-54
2022/10/13 11:35:11;;;;;;;11.10;4.55;;;;;;;25.33;39.59;95104.62;1699575;82;21534;-54
2022/10/13 11:38:05;;;;;;;6.50;4.75;;;;;;;25.44;39.54;95091.77;1701318;82;21020;-53
2022/10/13 11:40:59;;;;;;;5.72;4.75;;;;;;;25.58;38.71;95096.16;1720335;83;21064;-54
2022/10/13 11:43:52;;;;;;;7.45;4.92;;;;;;;25.47;39.19;95094.94;1696692;80;21388;-54
2022/10/13 11:46:47;;;;;;;11.48;5.17;;;;;;;25.57;38.87;95090.41;1692640;82;21133;-53
2022/10/13 11:49:35;;;;;;;6.40;4.85;;;;;;;25.41;38.66;95094.25;1705341;82;21021;-56